Etusivu
METAR-TAF:

METAR-TAF

Lentoasemat :

Searcy Municipal Airport

Searcy, Arkansas, Yhdysvallat

Leveyspiiri: 35-12-43N, Pituuspiiri: 091-44-14W, korkeus merenpinnasta: 81 m

Tämänhetkinen sää

Tämä raportti tehtiin 1 tunti ja 8 minuuttia sitten, kello 01.56 UTC
tyyntä
Lämpötila 24°C
Kosteus 89%
Ilmanpaine 1017 hPa
Näkyvyys: 16.1 km
selkeää

METAR: KSRC 260156Z AUTO 00000KT 10SM CLR 24/22 A3003 RMK AO2 SLP174 T02390222

Aika: 22:04 (03:04 UTC)


TAF: puuttuu

Säähavainnot ja -ennusteet yli 4000 lentoasemalta (METAR- ja TAF-raportit).

Käytössä olevat sääasemat on merkitty karttaan keltaisilla ja punaisilla pisteillä.

Aseta hiiri pisteen päälle nähdäksesi sääaseman nimen.

Klikkaa sitten nähdäksesi säähavainnot ja -ennusteet.

Kartan vaihtaminen: klikkaa mustalla rastilla varustettuja vihreitä pisteitä, niin voit zoomata sisään; viivalla varustettua vihreää pistettä, niin voit zoomata ulos tai vihreitä nuolia, niin pääset viereisille kartoille.


METAR-TAF: